createdAt,value
2017-09-20T00:01:08.991Z,17.30
2017-09-20T00:03:36.459Z,12.63
2017-09-20T00:06:03.859Z,13.20
2017-09-20T00:08:31.258Z,13.10
2017-09-20T00:10:58.662Z,12.40
2017-09-20T00:13:26.051Z,12.40
2017-09-20T00:15:53.446Z,17.43
2017-09-20T00:18:20.834Z,12.30
2017-09-20T00:20:48.238Z,13.47
2017-09-20T00:23:15.618Z,9.33
2017-09-20T00:25:43.007Z,11.93
2017-09-20T00:28:10.516Z,10.97
2017-09-20T00:30:37.902Z,12.17
2017-09-20T00:33:05.294Z,15.13
2017-09-20T00:35:32.694Z,16.27
2017-09-20T00:38:00.091Z,14.40
2017-09-20T00:40:27.486Z,15.10
2017-09-20T00:42:54.886Z,15.47
2017-09-20T00:45:22.286Z,17.30
2017-09-20T00:47:49.686Z,13.00
2017-09-20T00:50:17.083Z,15.07
2017-09-20T00:52:44.483Z,15.03
2017-09-20T00:55:11.884Z,18.53
2017-09-20T00:57:39.378Z,19.70
2017-09-20T01:00:06.775Z,17.87
2017-09-20T01:02:34.190Z,19.60
2017-09-20T01:05:01.578Z,18.27
2017-09-20T01:07:28.974Z,30.73
2017-09-20T01:09:56.458Z,23.60
2017-09-20T01:12:23.857Z,21.60
2017-09-20T01:14:51.270Z,24.13
2017-09-20T01:17:18.658Z,25.33
2017-09-20T01:19:46.054Z,24.20
2017-09-20T01:22:25.277Z,18.97
2017-09-20T01:24:52.676Z,22.20
2017-09-20T01:27:20.071Z,17.43
2017-09-20T01:29:47.475Z,24.20
2017-09-20T01:32:14.930Z,24.40
2017-09-20T01:34:42.332Z,22.63
2017-09-20T01:37:09.752Z,29.27
2017-09-20T01:39:37.126Z,27.13
2017-09-20T01:42:04.514Z,22.17
2017-09-20T01:44:32.011Z,26.87
2017-09-20T01:46:59.403Z,25.97
2017-09-20T01:49:26.800Z,24.17
2017-09-20T01:51:54.279Z,23.40
2017-09-20T01:54:21.678Z,30.77
2017-09-20T01:56:49.073Z,22.63
2017-09-20T01:59:16.466Z,26.53
2017-09-20T02:01:43.864Z,22.97
2017-09-20T02:04:11.265Z,19.43
2017-09-20T02:06:38.661Z,32.40
2017-09-20T02:09:06.051Z,30.13
2017-09-20T02:11:33.510Z,32.10
2017-09-20T02:14:00.902Z,27.57
2017-09-20T02:16:28.306Z,23.50
2017-09-20T02:18:55.699Z,27.10
2017-09-20T02:21:23.099Z,28.57
2017-09-20T02:23:50.490Z,24.50
2017-09-20T02:26:17.886Z,23.80
2017-09-20T02:28:45.283Z,25.87
2017-09-20T02:31:12.685Z,24.23
2017-09-20T02:33:40.083Z,23.23
2017-09-20T02:36:07.488Z,19.27
2017-09-20T02:38:34.883Z,20.57
2017-09-20T02:41:02.282Z,32.57
2017-09-20T02:43:29.677Z,23.57
2017-09-20T02:45:57.074Z,25.03
2017-09-20T02:48:24.490Z,28.97
2017-09-20T02:50:51.886Z,21.30
2017-09-20T02:53:19.362Z,29.80
2017-09-20T02:55:46.762Z,24.43
2017-09-20T02:58:14.171Z,22.27
2017-09-20T03:00:41.566Z,22.20
2017-09-20T03:03:08.966Z,21.53
2017-09-20T03:05:36.362Z,22.80
2017-09-20T03:08:03.766Z,19.37
2017-09-20T03:10:38.995Z,17.80
2017-09-20T03:13:06.390Z,18.00
2017-09-20T03:15:33.787Z,19.70
2017-09-20T03:18:01.187Z,32.40
2017-09-20T03:20:28.578Z,31.90
2017-09-20T03:22:56.006Z,22.30
2017-09-20T03:25:23.403Z,23.20
2017-09-20T03:27:50.817Z,28.17
2017-09-20T03:30:18.212Z,25.03
2017-09-20T03:32:45.634Z,30.40
2017-09-20T03:35:13.022Z,22.20
2017-09-20T03:37:40.432Z,28.87
2017-09-20T03:40:07.835Z,30.80
2017-09-20T03:42:35.227Z,24.87
2017-09-20T03:45:02.637Z,29.27
2017-09-20T03:47:30.023Z,32.03
2017-09-20T03:49:57.424Z,27.53
2017-09-20T03:52:24.818Z,30.40
2017-09-20T03:54:52.245Z,29.70
2017-09-20T03:57:19.684Z,46.07
2017-09-20T03:59:47.074Z,30.53
2017-09-20T04:02:13.758Z,29.30
2017-09-20T04:04:41.159Z,26.10
2017-09-20T04:07:08.563Z,26.13
2017-09-20T04:09:35.960Z,23.67
2017-09-20T04:12:03.354Z,22.97
2017-09-20T04:14:30.759Z,37.50
2017-09-20T04:16:58.147Z,30.90
2017-09-20T04:19:25.554Z,25.93
2017-09-20T04:21:53.028Z,27.73
2017-09-20T04:24:20.479Z,32.73
2017-09-20T04:26:47.879Z,29.57
2017-09-20T04:29:15.297Z,26.90
2017-09-20T04:31:42.695Z,27.53
2017-09-20T04:34:10.150Z,29.87
2017-09-20T04:36:37.563Z,23.13
2017-09-20T04:39:04.958Z,21.67
2017-09-20T04:41:32.355Z,27.83
2017-09-20T04:43:59.750Z,16.10
2017-09-20T04:46:27.146Z,21.53
2017-09-20T04:48:54.554Z,24.43
2017-09-20T04:51:21.953Z,24.60
2017-09-20T04:53:49.450Z,23.97
2017-09-20T04:56:16.838Z,28.77
2017-09-20T04:58:44.229Z,29.77
2017-09-20T05:01:11.636Z,22.70
2017-09-20T05:03:39.032Z,23.93
2017-09-20T05:06:06.434Z,23.23
2017-09-20T05:08:33.826Z,26.33
2017-09-20T05:11:01.228Z,23.57
2017-09-20T05:13:28.623Z,27.57
2017-09-20T05:15:56.032Z,21.43
2017-09-20T05:18:23.427Z,24.97
2017-09-20T05:20:50.829Z,19.77
2017-09-20T05:23:18.227Z,30.23
2017-09-20T05:25:45.626Z,20.13
2017-09-20T05:28:13.029Z,23.07
2017-09-20T05:30:40.442Z,18.47
2017-09-20T05:33:07.838Z,21.40
2017-09-20T05:35:35.243Z,18.53
2017-09-20T05:38:02.638Z,20.93
2017-09-20T05:40:30.035Z,20.00
2017-09-20T05:42:57.427Z,16.37
2017-09-20T05:45:24.827Z,22.37
2017-09-20T05:47:52.228Z,21.80
2017-09-20T05:50:19.638Z,24.13
2017-09-20T05:52:47.041Z,23.90
2017-09-20T05:55:14.536Z,25.80
2017-09-20T05:57:41.939Z,23.10
2017-09-20T06:00:09.339Z,19.30
2017-09-20T06:02:36.743Z,21.30
2017-09-20T06:05:04.143Z,15.77
2017-09-20T06:07:31.541Z,15.33
2017-09-20T06:09:58.986Z,25.63
2017-09-20T06:12:26.394Z,14.97
2017-09-20T06:14:53.879Z,18.93
2017-09-20T06:17:21.278Z,25.13
2017-09-20T06:19:48.672Z,21.00
2017-09-20T06:22:16.148Z,16.23
2017-09-20T06:24:43.540Z,14.33
2017-09-20T06:30:01.970Z,17.17
2017-09-20T06:32:29.370Z,19.07
2017-09-20T06:34:56.779Z,14.87
2017-09-20T06:37:24.180Z,15.17
2017-09-20T06:39:51.571Z,16.10
2017-09-20T06:42:19.042Z,13.30
2017-09-20T06:44:46.431Z,13.20
2017-09-20T06:47:13.831Z,15.57
2017-09-20T06:49:41.231Z,13.60
2017-09-20T06:52:08.623Z,13.43
2017-09-20T06:54:36.018Z,24.93
2017-09-20T06:57:03.414Z,17.30
2017-09-20T06:59:30.806Z,11.07
2017-09-20T07:01:58.279Z,14.70
2017-09-20T07:04:25.659Z,14.97
2017-09-20T07:06:53.060Z,19.93
2017-09-20T07:09:20.450Z,12.43
2017-09-20T07:11:47.846Z,7.73
2017-09-20T07:14:15.234Z,8.90
2017-09-20T07:16:42.627Z,9.30
2017-09-20T07:19:10.013Z,7.90
2017-09-20T07:21:37.419Z,11.33
2017-09-20T07:24:04.802Z,9.03
2017-09-20T07:26:32.190Z,14.77
2017-09-20T07:28:59.587Z,5.83
2017-09-20T07:31:26.983Z,18.30
2017-09-20T07:33:54.375Z,7.60
2017-09-20T07:36:21.765Z,7.13
2017-09-20T07:38:49.193Z,5.37
2017-09-20T07:41:16.579Z,7.07
2017-09-20T07:43:43.972Z,8.33
2017-09-20T07:46:11.462Z,5.70
2017-09-20T07:48:38.859Z,6.63
2017-09-20T07:51:06.247Z,11.27
2017-09-20T07:53:33.743Z,10.90
2017-09-20T07:56:01.126Z,5.30
2017-09-20T07:58:28.526Z,6.70
2017-09-20T08:00:55.919Z,14.03
2017-09-20T08:03:23.314Z,6.90
2017-09-20T08:05:50.698Z,7.60
2017-09-20T08:08:18.186Z,6.77
2017-09-20T08:10:45.579Z,14.57
2017-09-20T08:13:12.975Z,4.93
2017-09-20T08:15:40.456Z,7.17
2017-09-20T08:18:07.845Z,5.67
2017-09-20T08:20:35.240Z,6.50
2017-09-20T08:23:02.686Z,4.17
2017-09-20T08:25:30.074Z,5.40
2017-09-20T08:27:57.463Z,5.03
2017-09-20T08:30:24.858Z,10.50
2017-09-20T08:32:52.250Z,4.33
2017-09-20T08:35:19.647Z,10.60
2017-09-20T08:37:47.046Z,5.87
2017-09-20T08:40:14.438Z,8.43
2017-09-20T08:42:41.834Z,16.77
2017-09-20T08:45:09.313Z,5.73
2017-09-20T08:47:36.699Z,5.50
2017-09-20T08:50:04.105Z,10.60
2017-09-20T08:52:31.586Z,8.10
2017-09-20T08:54:59.047Z,4.73
2017-09-20T08:57:26.442Z,4.40
2017-09-20T08:59:53.832Z,6.00
2017-09-20T09:02:21.224Z,6.57
2017-09-20T09:04:48.611Z,7.50
2017-09-20T09:07:16.003Z,9.03
2017-09-20T09:09:43.392Z,7.90
2017-09-20T09:12:10.783Z,6.73
2017-09-20T09:14:38.169Z,8.73
2017-09-20T09:17:05.558Z,4.90
2017-09-20T09:19:32.950Z,10.03
2017-09-20T09:22:00.450Z,4.73
2017-09-20T09:24:27.836Z,6.00
2017-09-20T09:26:55.247Z,5.37
2017-09-20T09:29:22.689Z,4.13
2017-09-20T09:31:50.078Z,4.57
2017-09-20T09:34:17.479Z,9.03
2017-09-20T09:36:44.875Z,9.23
2017-09-20T09:39:12.270Z,4.83
2017-09-20T09:41:39.654Z,4.87
2017-09-20T09:44:07.038Z,4.30
2017-09-20T09:46:34.440Z,6.07
2017-09-20T09:49:01.819Z,5.60
2017-09-20T09:51:29.224Z,7.07
2017-09-20T09:53:56.610Z,5.27
2017-09-20T09:56:23.998Z,3.60
2017-09-20T09:58:51.391Z,7.97
2017-09-20T10:01:18.783Z,17.20
2017-09-20T10:03:46.182Z,8.63
2017-09-20T10:06:13.562Z,8.60
2017-09-20T10:08:40.962Z,7.23
2017-09-20T10:11:08.368Z,3.70
2017-09-20T10:13:35.759Z,3.53
2017-09-20T10:16:03.146Z,5.13
2017-09-20T10:18:30.539Z,8.77
2017-09-20T10:20:57.923Z,6.80
2017-09-20T10:23:25.325Z,2.57
2017-09-20T10:25:52.800Z,5.20
2017-09-20T10:28:20.191Z,3.23
2017-09-20T10:30:47.591Z,4.03
2017-09-20T10:33:14.982Z,3.87
2017-09-20T10:35:42.374Z,5.50
2017-09-20T10:38:09.771Z,4.13
2017-09-20T10:40:37.150Z,3.90
2017-09-20T10:43:04.586Z,6.43
2017-09-20T10:45:31.973Z,3.27
2017-09-20T10:47:59.377Z,5.50
2017-09-20T10:50:26.774Z,4.00
2017-09-20T10:52:54.198Z,4.20
2017-09-20T10:55:21.590Z,10.97
2017-09-20T10:57:49.018Z,4.93
2017-09-20T11:00:16.415Z,5.90
2017-09-20T11:02:43.808Z,5.13
2017-09-20T11:05:11.206Z,15.80
2017-09-20T11:07:38.602Z,6.67
2017-09-20T11:10:05.982Z,6.07
2017-09-20T11:12:33.371Z,4.77
2017-09-20T11:15:00.763Z,9.03
2017-09-20T11:17:28.150Z,11.07
2017-09-20T11:19:55.543Z,4.97
2017-09-20T11:22:22.922Z,6.10
2017-09-20T11:24:50.317Z,4.93
2017-09-20T11:27:17.705Z,4.27
2017-09-20T11:29:45.093Z,6.83
2017-09-20T11:32:12.504Z,4.33
2017-09-20T11:34:39.894Z,8.47
2017-09-20T11:37:07.279Z,6.43
2017-09-20T11:39:34.667Z,6.17
2017-09-20T11:42:02.070Z,8.63
2017-09-20T11:44:29.507Z,10.53
2017-09-20T11:46:56.866Z,6.97
2017-09-20T11:49:24.255Z,6.10
2017-09-20T11:51:51.644Z,8.20
2017-09-20T11:54:19.030Z,8.17
2017-09-20T11:56:46.422Z,6.60
2017-09-20T11:59:13.814Z,6.73
2017-09-20T12:01:41.206Z,9.90
2017-09-20T12:04:08.595Z,6.50
2017-09-20T12:06:36.082Z,10.33
2017-09-20T12:09:03.463Z,8.10
2017-09-20T12:11:30.858Z,10.50
2017-09-20T12:13:58.248Z,8.77
2017-09-20T12:16:25.638Z,9.83
2017-09-20T12:18:53.031Z,11.93
2017-09-20T12:21:20.437Z,10.53
2017-09-20T12:23:47.831Z,11.27
2017-09-20T12:26:15.238Z,11.63
2017-09-20T12:28:42.631Z,13.63
2017-09-20T12:31:10.055Z,12.60
2017-09-20T12:33:37.447Z,11.27
2017-09-20T12:36:04.848Z,13.40
2017-09-20T12:38:32.235Z,16.20
2017-09-20T12:40:59.638Z,13.73
2017-09-20T12:43:27.034Z,13.90
2017-09-20T12:45:54.431Z,12.93
2017-09-20T12:48:21.926Z,17.63
2017-09-20T12:50:49.326Z,16.23
2017-09-20T12:53:16.720Z,17.17
2017-09-20T12:55:44.119Z,13.77
2017-09-20T12:58:11.574Z,12.90
2017-09-20T13:00:38.975Z,14.00
2017-09-20T13:03:06.371Z,12.33
2017-09-20T13:05:34.252Z,12.93
2017-09-20T13:08:01.657Z,17.00
2017-09-20T13:10:29.047Z,14.30
2017-09-20T13:12:56.452Z,16.13
2017-09-20T13:15:23.855Z,12.87
2017-09-20T13:17:51.272Z,15.63
2017-09-20T13:20:18.666Z,14.67
2017-09-20T13:22:46.142Z,13.03
2017-09-20T13:25:13.542Z,14.67
2017-09-20T13:27:40.946Z,11.37
2017-09-20T13:30:08.342Z,13.53
2017-09-20T13:32:35.737Z,12.20
2017-09-20T13:35:03.146Z,13.03
2017-09-20T13:37:30.554Z,13.13
2017-09-20T13:39:57.942Z,12.53
2017-09-20T13:42:25.336Z,14.00
2017-09-20T13:44:52.739Z,11.87
2017-09-20T13:47:20.232Z,11.40
2017-09-20T13:49:47.634Z,11.83
2017-09-20T13:52:15.022Z,11.80
2017-09-20T13:54:42.427Z,13.47
2017-09-20T13:57:09.823Z,12.73
2017-09-20T13:59:37.306Z,14.00
2017-09-20T14:02:04.711Z,17.70
2017-09-20T14:04:32.548Z,16.47
2017-09-20T14:06:59.943Z,15.20
2017-09-20T14:09:27.343Z,13.83
2017-09-20T14:11:54.739Z,21.37
2017-09-20T14:14:22.138Z,10.60
2017-09-20T14:16:49.522Z,12.80
2017-09-20T14:19:16.927Z,12.93
2017-09-20T14:21:44.395Z,13.37
2017-09-20T14:24:11.790Z,19.17
2017-09-20T14:26:39.183Z,12.00
2017-09-20T14:29:06.581Z,16.60
2017-09-20T14:31:33.974Z,16.77
2017-09-20T14:34:01.382Z,15.37
2017-09-20T14:36:28.770Z,11.53
2017-09-20T14:38:56.172Z,12.17
2017-09-20T14:41:23.568Z,11.63
2017-09-20T14:43:50.982Z,13.20
2017-09-20T14:46:18.380Z,12.83
2017-09-20T14:48:45.774Z,16.10
2017-09-20T14:51:13.175Z,10.67
2017-09-20T14:53:40.572Z,12.27
2017-09-20T14:56:07.966Z,13.00
2017-09-20T14:58:35.359Z,14.60
2017-09-20T15:01:02.826Z,10.23
2017-09-20T15:03:30.218Z,11.13
2017-09-20T15:05:57.610Z,12.63
2017-09-20T15:08:25.014Z,15.00
2017-09-20T15:10:52.470Z,12.40
2017-09-20T15:13:20.026Z,12.13
2017-09-20T15:15:47.423Z,14.17
2017-09-20T15:18:14.818Z,17.43
2017-09-20T15:20:42.222Z,14.20
2017-09-20T15:23:09.615Z,17.93
2017-09-20T15:25:37.010Z,12.40
2017-09-20T15:28:04.408Z,17.50
2017-09-20T15:30:31.810Z,18.80
2017-09-20T15:32:59.211Z,19.70
2017-09-20T15:35:26.602Z,14.07
2017-09-20T15:37:54.003Z,13.87
2017-09-20T15:40:21.401Z,15.67
2017-09-20T15:42:48.899Z,15.70
2017-09-20T15:45:16.510Z,15.90
2017-09-20T15:47:43.909Z,16.47
2017-09-20T15:50:11.308Z,18.00
2017-09-20T15:52:38.704Z,22.60
2017-09-20T15:55:06.126Z,16.77
2017-09-20T15:57:33.494Z,14.87
2017-09-20T16:00:00.890Z,16.80
2017-09-20T16:02:28.295Z,15.73
2017-09-20T16:04:55.687Z,21.53
2017-09-20T16:07:23.147Z,16.93
2017-09-20T16:09:50.624Z,18.67
2017-09-20T16:12:18.022Z,15.90
2017-09-20T16:14:45.418Z,16.00
2017-09-20T16:17:12.827Z,12.97
2017-09-20T16:19:40.230Z,16.10
2017-09-20T16:22:07.689Z,13.10
2017-09-20T16:24:35.094Z,20.40
2017-09-20T16:27:02.495Z,18.50
2017-09-20T16:29:29.906Z,21.33
2017-09-20T16:31:57.426Z,22.20
2017-09-20T16:34:24.822Z,14.90
2017-09-20T16:36:52.226Z,19.70
2017-09-20T16:39:19.691Z,16.40
2017-09-20T16:41:47.083Z,18.60
2017-09-20T16:44:14.486Z,19.00
2017-09-20T16:46:41.879Z,19.33
2017-09-20T16:49:09.277Z,29.67
2017-09-20T16:51:36.690Z,19.13
2017-09-20T16:54:04.087Z,18.80
2017-09-20T16:56:31.478Z,21.17
2017-09-20T16:58:58.882Z,25.73
2017-09-20T17:01:26.274Z,18.43
2017-09-20T17:03:53.671Z,19.33
2017-09-20T17:06:21.064Z,18.97
2017-09-20T17:08:48.562Z,17.70
2017-09-20T17:11:15.948Z,19.47
2017-09-20T17:13:43.350Z,20.30
2017-09-20T17:16:10.747Z,20.73
2017-09-20T17:18:38.151Z,19.03
2017-09-20T17:21:05.566Z,21.70
2017-09-20T17:23:32.982Z,19.90
2017-09-20T17:26:00.380Z,15.77
2017-09-20T17:28:27.787Z,17.90
2017-09-20T17:30:55.262Z,15.37
2017-09-20T17:33:22.650Z,17.50
2017-09-20T17:35:50.054Z,19.10
2017-09-20T17:38:17.446Z,17.33
2017-09-20T17:40:44.848Z,17.43
2017-09-20T17:43:12.306Z,20.60
2017-09-20T17:45:39.689Z,19.27
2017-09-20T17:48:07.102Z,24.20
2017-09-20T17:50:34.498Z,21.23
2017-09-20T17:53:01.902Z,19.13
2017-09-20T17:55:29.370Z,14.73
2017-09-20T17:57:56.766Z,11.50
2017-09-20T18:00:24.285Z,12.53
2017-09-20T18:02:51.678Z,18.17
2017-09-20T18:05:19.084Z,15.80
2017-09-20T18:07:46.478Z,17.37
2017-09-20T18:10:13.936Z,13.73
2017-09-20T18:12:41.326Z,12.60
2017-09-20T18:15:08.727Z,16.80
2017-09-20T18:17:36.119Z,15.77
2017-09-20T18:20:04.331Z,16.40
2017-09-20T18:22:31.725Z,12.07
2017-09-20T18:24:59.126Z,13.20
2017-09-20T18:27:26.520Z,12.47
2017-09-20T18:29:53.920Z,14.03
2017-09-20T18:32:21.316Z,13.50
2017-09-20T18:34:48.723Z,14.20
2017-09-20T18:37:16.114Z,18.53
2017-09-20T18:39:43.518Z,14.63
2017-09-20T18:42:10.919Z,18.37
2017-09-20T18:44:38.340Z,16.00
2017-09-20T18:47:05.749Z,13.40
2017-09-20T18:49:33.131Z,21.23
2017-09-20T18:52:00.530Z,16.03
2017-09-20T18:54:27.951Z,18.50
2017-09-20T18:56:55.414Z,18.13
2017-09-20T18:59:22.835Z,23.10
2017-09-20T19:01:50.236Z,16.13
2017-09-20T19:04:17.626Z,20.43
2017-09-20T19:06:45.022Z,22.77
2017-09-20T19:09:12.418Z,19.30
2017-09-20T19:11:39.823Z,19.43
2017-09-20T19:14:07.213Z,23.23
2017-09-20T19:16:34.602Z,20.13
2017-09-20T19:19:02.007Z,16.93
2017-09-20T19:21:29.406Z,17.07
2017-09-20T19:23:56.799Z,19.80
2017-09-20T19:26:24.195Z,18.23
2017-09-20T19:28:51.594Z,18.30
2017-09-20T19:31:18.990Z,16.77
2017-09-20T19:33:46.395Z,16.77
2017-09-20T19:36:13.846Z,22.00
2017-09-20T19:38:41.254Z,17.83
2017-09-20T19:41:08.647Z,24.63
2017-09-20T19:43:36.076Z,18.47
2017-09-20T19:46:03.466Z,19.10
2017-09-20T19:48:30.979Z,22.20
2017-09-20T19:50:58.374Z,26.23
2017-09-20T19:53:25.774Z,29.03
2017-09-20T19:55:53.175Z,24.27
2017-09-20T19:58:20.569Z,17.30
2017-09-20T20:00:47.968Z,23.63
2017-09-20T20:03:15.406Z,20.40
2017-09-20T20:05:42.794Z,28.57
2017-09-20T20:08:10.326Z,22.03
2017-09-20T20:10:37.711Z,16.60
2017-09-20T20:13:05.118Z,16.90
2017-09-20T20:15:32.506Z,22.70
2017-09-20T20:17:59.914Z,24.27
2017-09-20T20:20:27.325Z,19.93
2017-09-20T20:22:54.726Z,20.23
2017-09-20T20:25:22.125Z,17.07
2017-09-20T20:27:49.534Z,17.30
2017-09-20T20:30:16.924Z,18.93
2017-09-20T20:32:44.328Z,16.50
2017-09-20T20:35:11.734Z,22.43
2017-09-20T20:37:39.182Z,18.13
2017-09-20T20:40:06.582Z,22.30
2017-09-20T20:42:33.975Z,18.17
2017-09-20T20:45:01.374Z,20.00
2017-09-20T20:47:28.775Z,20.40
2017-09-20T20:49:56.170Z,27.53
2017-09-20T20:52:23.565Z,19.27
2017-09-20T20:54:50.958Z,19.80
2017-09-20T20:57:18.355Z,18.57
2017-09-20T20:59:45.755Z,20.70
2017-09-20T21:02:13.155Z,17.10
2017-09-20T21:04:40.550Z,21.27
2017-09-20T21:07:08.058Z,18.93
2017-09-20T21:09:35.466Z,15.90
2017-09-20T21:12:02.854Z,15.63
2017-09-20T21:14:30.260Z,23.77
2017-09-20T21:16:57.673Z,21.60
2017-09-20T21:21:57.814Z,24.20
2017-09-20T21:24:25.215Z,27.23
2017-09-20T21:26:52.606Z,21.43
2017-09-20T21:32:10.924Z,19.10
2017-09-20T21:34:38.322Z,17.97
2017-09-20T21:37:05.719Z,21.47
2017-09-20T21:39:33.118Z,20.73
2017-09-20T21:42:00.508Z,29.43
2017-09-20T21:44:27.903Z,19.77
2017-09-20T21:46:55.302Z,21.10
2017-09-20T21:49:22.690Z,22.17
2017-09-20T21:51:50.118Z,19.30
2017-09-20T21:54:17.520Z,25.47
2017-09-20T21:56:44.938Z,24.10
2017-09-20T21:59:12.334Z,23.23
2017-09-20T22:01:39.740Z,23.97
2017-09-20T22:04:07.127Z,20.00
2017-09-20T22:06:34.526Z,19.83
2017-09-20T22:09:01.928Z,21.00
2017-09-20T22:11:29.330Z,19.07
2017-09-20T22:13:56.718Z,22.60
2017-09-20T22:16:35.954Z,21.17
2017-09-20T22:19:15.151Z,20.23
2017-09-20T22:21:54.319Z,18.50
2017-09-20T22:24:33.531Z,22.27
2017-09-20T22:27:00.927Z,24.83
2017-09-20T22:29:28.318Z,20.47
2017-09-20T22:31:55.730Z,17.53
2017-09-20T22:34:23.110Z,25.90
2017-09-20T22:36:50.530Z,24.13
2017-09-20T22:39:18.107Z,18.60
2017-09-20T22:41:45.486Z,20.70
2017-09-20T22:44:12.906Z,23.00
2017-09-20T22:46:40.301Z,22.43
2017-09-20T22:49:07.713Z,20.17
2017-09-20T22:51:35.103Z,35.17
2017-09-20T22:54:02.511Z,32.90
2017-09-20T22:56:29.910Z,30.80
2017-09-20T22:58:57.311Z,25.70
2017-09-20T23:01:24.703Z,37.50
2017-09-20T23:03:52.111Z,27.83
2017-09-20T23:06:19.515Z,28.40
2017-09-20T23:08:46.921Z,32.90
2017-09-20T23:11:14.342Z,42.03
2017-09-20T23:13:41.745Z,28.30
2017-09-20T23:16:09.139Z,35.03
2017-09-20T23:18:36.550Z,33.23
2017-09-20T23:21:03.950Z,31.60
2017-09-20T23:23:31.366Z,27.60
2017-09-20T23:25:58.756Z,31.03
2017-09-20T23:28:26.155Z,26.50
2017-09-20T23:30:53.558Z,34.83
2017-09-20T23:33:20.946Z,30.73
2017-09-20T23:35:48.346Z,35.87
2017-09-20T23:38:15.742Z,39.77
2017-09-20T23:40:43.153Z,50.23
2017-09-20T23:43:10.534Z,39.20
2017-09-20T23:45:37.935Z,40.20
2017-09-20T23:48:05.346Z,32.17
2017-09-20T23:50:32.746Z,37.53
2017-09-20T23:53:00.138Z,50.03
2017-09-20T23:55:27.551Z,66.10
2017-09-20T23:57:54.934Z,38.50
